createdAt,value
2023-05-19T00:00:15.575Z,7.31
2023-05-19T00:02:45.131Z,6.92
2023-05-19T00:05:15.990Z,6.54
2023-05-19T00:07:46.388Z,6.47
2023-05-19T00:10:17.025Z,6.39
2023-05-19T00:12:46.207Z,6.16
2023-05-19T00:15:15.530Z,6.15
2023-05-19T00:17:44.486Z,6.15
2023-05-19T00:20:14.288Z,6.12
2023-05-19T00:22:45.019Z,5.98
2023-05-19T00:25:14.088Z,6.04
2023-05-19T00:27:43.159Z,5.86
2023-05-19T00:30:12.262Z,5.88
2023-05-19T00:32:41.239Z,5.77
2023-05-19T00:35:10.498Z,5.79
2023-05-19T00:37:39.477Z,5.37
2023-05-19T00:40:09.258Z,5.69
2023-05-19T00:42:38.318Z,5.84
2023-05-19T00:45:07.905Z,5.74
2023-05-19T00:47:36.971Z,5.82
2023-05-19T00:50:06.333Z,5.56
2023-05-19T00:52:35.448Z,6.91
2023-05-19T00:55:04.433Z,8.17
2023-05-19T00:57:36.109Z,9.23
2023-05-19T01:00:06.549Z,9.81
2023-05-19T01:02:36.355Z,10.77
2023-05-19T01:05:05.451Z,11.15
2023-05-19T01:07:35.309Z,11.61
2023-05-19T01:10:05.045Z,11.45
2023-05-19T01:12:33.930Z,12.06
2023-05-19T01:15:07.570Z,12.96
2023-05-19T01:17:57.730Z,13.37
2023-05-19T01:20:51.589Z,13.45
2023-05-19T01:23:29.698Z,13.66
2023-05-19T01:26:41.058Z,13.89
2023-05-19T01:29:28.273Z,14.25
2023-05-19T01:32:01.341Z,14.27
2023-05-19T01:34:32.583Z,13.89
2023-05-19T01:37:03.793Z,13.54
2023-05-19T01:39:34.499Z,13.81
2023-05-19T01:42:05.172Z,14.10
2023-05-19T01:44:35.238Z,13.92
2023-05-19T01:47:04.783Z,13.42
2023-05-19T01:49:33.814Z,13.33
2023-05-19T01:52:02.884Z,13.23
2023-05-19T01:54:31.834Z,13.05
2023-05-19T01:57:22.424Z,13.13
2023-05-19T02:00:13.075Z,13.33
2023-05-19T02:02:57.050Z,13.47
2023-05-19T02:05:54.478Z,13.55
2023-05-19T02:08:35.421Z,13.63
2023-05-19T02:11:27.586Z,13.85
2023-05-19T02:13:58.050Z,13.76
2023-05-19T02:16:29.910Z,13.53
2023-05-19T02:19:00.364Z,13.29
2023-05-19T02:21:29.212Z,12.96
2023-05-19T02:23:58.195Z,13.30
2023-05-19T02:26:27.086Z,13.54
2023-05-19T02:28:56.050Z,13.50
2023-05-19T02:31:26.372Z,13.53
2023-05-19T02:33:55.228Z,13.99
2023-05-19T02:36:24.218Z,13.41
2023-05-19T02:38:53.090Z,13.65
2023-05-19T02:41:23.115Z,13.45
2023-05-19T02:43:52.100Z,13.26
2023-05-19T02:46:21.668Z,13.18
2023-05-19T02:48:50.651Z,13.33
2023-05-19T02:51:19.480Z,13.37
2023-05-19T02:53:48.294Z,13.36
2023-05-19T02:56:17.373Z,13.81
2023-05-19T02:58:46.287Z,14.27
2023-05-19T03:01:15.834Z,14.38
2023-05-19T03:03:44.965Z,14.32
2023-05-19T03:06:15.098Z,14.66
2023-05-19T03:08:44.199Z,14.31
2023-05-19T03:11:13.630Z,14.59
2023-05-19T03:13:42.654Z,14.67
2023-05-19T03:16:12.758Z,14.77
2023-05-19T03:18:42.960Z,14.65
2023-05-19T03:21:12.124Z,14.80
2023-05-19T03:23:41.411Z,14.56
2023-05-19T03:26:11.476Z,14.97
2023-05-19T03:28:40.446Z,15.01
2023-05-19T03:31:09.312Z,15.11
2023-05-19T03:33:40.576Z,14.95
2023-05-19T03:36:09.766Z,15.18
2023-05-19T03:38:42.934Z,14.86
2023-05-19T03:41:11.871Z,14.77
2023-05-19T03:43:40.713Z,15.07
2023-05-19T03:46:11.397Z,14.91
2023-05-19T03:48:57.726Z,15.01
2023-05-19T03:51:39.566Z,14.63
2023-05-19T03:54:23.273Z,14.88
2023-05-19T03:56:52.906Z,14.86
2023-05-19T03:59:21.946Z,14.91
2023-05-19T04:01:51.645Z,15.06
2023-05-19T04:04:20.806Z,15.23
2023-05-19T04:06:49.954Z,15.39
2023-05-19T04:09:20.273Z,15.62
2023-05-19T04:11:48.971Z,15.73
2023-05-19T04:14:18.000Z,15.80
2023-05-19T04:16:46.766Z,15.73
2023-05-19T04:19:15.752Z,15.49
2023-05-19T04:21:44.524Z,15.60
2023-05-19T04:24:13.633Z,15.99
2023-05-19T04:26:46.648Z,16.25
2023-05-19T04:29:18.811Z,16.27
2023-05-19T04:31:48.006Z,16.18
2023-05-19T04:34:20.622Z,15.87
2023-05-19T04:36:53.073Z,16.06
2023-05-19T04:39:25.716Z,16.01
2023-05-19T04:41:55.184Z,16.15
2023-05-19T04:44:25.505Z,16.26
2023-05-19T04:46:54.911Z,16.30
2023-05-19T04:49:25.215Z,16.45
2023-05-19T04:51:55.799Z,16.77
2023-05-19T04:54:29.512Z,16.60
2023-05-19T04:56:58.607Z,16.62
2023-05-19T04:59:30.418Z,16.78
2023-05-19T05:01:59.872Z,16.84
2023-05-19T05:04:31.456Z,16.73
2023-05-19T05:07:00.472Z,16.60
2023-05-19T05:09:30.674Z,16.58
2023-05-19T05:12:02.862Z,16.72
2023-05-19T05:14:32.440Z,17.01
2023-05-19T05:17:02.337Z,17.12
2023-05-19T05:19:32.284Z,17.12
2023-05-19T05:22:01.759Z,17.11
2023-05-19T05:24:32.659Z,17.05
2023-05-19T05:27:04.789Z,16.96
2023-05-19T05:29:34.785Z,17.03
2023-05-19T05:32:05.820Z,16.77
2023-05-19T05:34:36.481Z,16.45
2023-05-19T05:37:06.743Z,16.70
2023-05-19T05:39:36.798Z,17.00
2023-05-19T05:42:06.687Z,17.36
2023-05-19T05:44:36.439Z,17.13
2023-05-19T05:47:07.406Z,17.16
2023-05-19T05:49:39.030Z,17.33
2023-05-19T05:52:10.266Z,17.35
2023-05-19T05:54:44.782Z,16.90
2023-05-19T05:57:16.364Z,16.84
2023-05-19T05:59:47.904Z,17.32
2023-05-19T06:02:19.040Z,17.44
2023-05-19T06:04:48.028Z,17.57
2023-05-19T06:07:16.935Z,17.81
2023-05-19T06:09:46.754Z,17.46
2023-05-19T06:12:16.970Z,17.28
2023-05-19T06:14:49.661Z,17.53
2023-05-19T06:17:55.237Z,17.56
2023-05-19T06:20:24.369Z,17.76
2023-05-19T06:22:53.190Z,17.74
2023-05-19T06:25:25.505Z,17.80
2023-05-19T06:27:55.186Z,17.90
2023-05-19T06:30:27.371Z,18.20
2023-05-19T06:33:19.397Z,18.00
2023-05-19T06:35:48.484Z,18.24
2023-05-19T06:38:17.644Z,18.45
2023-05-19T06:40:46.484Z,18.16
2023-05-19T06:43:15.672Z,17.93
2023-05-19T06:45:58.262Z,18.26
2023-05-19T06:48:27.653Z,18.43
2023-05-19T06:50:57.224Z,18.47
2023-05-19T06:53:26.793Z,18.56
2023-05-19T06:56:00.022Z,18.46
2023-05-19T06:58:33.927Z,18.68
2023-05-19T07:01:06.004Z,18.88
2023-05-19T07:03:41.013Z,19.48
2023-05-19T07:06:10.948Z,19.64
2023-05-19T07:08:39.712Z,19.60
2023-05-19T07:11:09.892Z,19.25
2023-05-19T07:13:39.180Z,19.06
2023-05-19T07:16:08.229Z,19.12
2023-05-19T07:18:37.244Z,19.27
2023-05-19T07:21:06.396Z,19.37
2023-05-19T07:23:35.491Z,19.85
2023-05-19T07:26:04.284Z,20.10
2023-05-19T07:28:35.196Z,19.63
2023-05-19T07:31:04.108Z,19.47
2023-05-19T07:33:33.004Z,20.18
2023-05-19T07:36:01.853Z,20.54
2023-05-19T07:38:35.224Z,20.75
2023-05-19T07:41:04.328Z,20.41
2023-05-19T07:43:33.372Z,20.22
2023-05-19T07:46:02.250Z,20.31
2023-05-19T07:48:34.452Z,20.41
2023-05-19T07:51:03.595Z,20.64
2023-05-19T07:53:32.550Z,20.13
2023-05-19T07:56:01.765Z,20.27
2023-05-19T07:58:30.809Z,20.33
2023-05-19T08:01:00.472Z,20.66
2023-05-19T08:03:31.394Z,20.79
2023-05-19T08:06:00.385Z,20.38
2023-05-19T08:08:29.086Z,20.24
2023-05-19T08:10:57.903Z,20.38
2023-05-19T08:13:26.838Z,20.45
2023-05-19T08:16:00.390Z,20.86
2023-05-19T08:18:29.427Z,20.77
2023-05-19T08:20:58.185Z,20.36
2023-05-19T08:23:27.343Z,20.48
2023-05-19T08:25:56.552Z,20.32
2023-05-19T08:28:25.664Z,20.07
2023-05-19T08:30:54.412Z,20.11
2023-05-19T08:33:23.718Z,20.35
2023-05-19T08:35:56.407Z,20.19
2023-05-19T08:38:26.934Z,20.34
2023-05-19T08:40:56.215Z,20.15
2023-05-19T08:43:25.058Z,20.14
2023-05-19T08:45:54.985Z,20.65
2023-05-19T08:48:24.270Z,20.78
2023-05-19T08:51:26.684Z,21.02
2023-05-19T08:54:03.191Z,20.89
2023-05-19T08:56:35.505Z,20.45
2023-05-19T08:59:04.800Z,20.57
2023-05-19T09:01:34.207Z,20.69
2023-05-19T09:04:07.555Z,20.86
2023-05-19T09:06:36.402Z,21.00
2023-05-19T09:09:09.285Z,20.97
2023-05-19T09:11:38.611Z,20.76
2023-05-19T09:14:07.563Z,20.80
2023-05-19T09:16:36.442Z,20.63
2023-05-19T09:19:05.478Z,20.74
2023-05-19T09:21:34.601Z,21.07
2023-05-19T09:24:07.616Z,20.96
2023-05-19T09:26:44.132Z,20.94
2023-05-19T09:29:17.848Z,21.04
2023-05-19T09:32:06.857Z,21.16
2023-05-19T09:34:43.013Z,21.25
2023-05-19T09:37:14.193Z,21.37
2023-05-19T09:39:49.342Z,21.48
2023-05-19T09:42:19.918Z,21.26
2023-05-19T09:44:49.094Z,21.16
2023-05-19T09:47:18.201Z,21.04
2023-05-19T09:49:53.322Z,21.13
2023-05-19T09:52:22.865Z,21.03
2023-05-19T09:54:52.623Z,20.96
2023-05-19T09:57:30.261Z,20.93
2023-05-19T10:00:01.148Z,20.92
2023-05-19T10:02:33.949Z,20.81
2023-05-19T10:05:05.397Z,20.87
2023-05-19T10:07:35.408Z,21.02
2023-05-19T10:10:04.488Z,20.64
2023-05-19T10:12:34.242Z,20.75
2023-05-19T10:15:04.084Z,20.79
2023-05-19T10:17:35.510Z,20.82
2023-05-19T10:20:06.020Z,20.81
2023-05-19T10:22:35.482Z,20.59
2023-05-19T10:25:05.206Z,20.54
2023-05-19T10:27:39.944Z,20.70
2023-05-19T10:30:51.679Z,20.66
2023-05-19T10:33:29.781Z,20.60
2023-05-19T10:36:03.536Z,20.72
2023-05-19T10:39:19.993Z,20.75
2023-05-19T10:42:35.661Z,20.77
2023-05-19T10:45:21.271Z,20.54
2023-05-19T10:47:52.511Z,20.57
2023-05-19T10:50:21.940Z,20.53
2023-05-19T10:52:57.783Z,20.42
2023-05-19T10:55:54.122Z,20.58
2023-05-19T10:58:42.251Z,20.50
2023-05-19T11:01:18.210Z,20.60
2023-05-19T11:03:52.999Z,20.48
2023-05-19T11:06:29.923Z,20.61
2023-05-19T11:09:11.166Z,20.53
2023-05-19T11:11:55.719Z,20.58
2023-05-19T11:14:28.083Z,20.54
2023-05-19T11:17:01.267Z,20.33
2023-05-19T11:19:32.359Z,20.43
2023-05-19T11:22:12.246Z,20.20
2023-05-19T11:24:55.091Z,20.27
2023-05-19T11:27:28.051Z,20.43
2023-05-19T11:30:00.028Z,20.32
2023-05-19T11:32:34.485Z,20.36
2023-05-19T11:35:03.253Z,20.28
2023-05-19T11:37:34.125Z,20.24
2023-05-19T11:40:08.143Z,20.12
2023-05-19T11:42:37.856Z,20.17
2023-05-19T11:45:07.944Z,20.19
2023-05-19T11:47:50.869Z,20.05
2023-05-19T11:50:26.866Z,20.06
2023-05-19T11:52:58.386Z,20.10
2023-05-19T11:55:27.774Z,20.04
2023-05-19T11:58:03.882Z,20.18
2023-05-19T12:00:40.257Z,20.09
2023-05-19T12:03:10.099Z,20.18
2023-05-19T12:05:43.703Z,20.26
2023-05-19T12:08:13.952Z,19.81
2023-05-19T12:10:43.036Z,19.98
2023-05-19T12:13:12.142Z,19.82
2023-05-19T12:15:40.926Z,20.11
2023-05-19T12:18:10.547Z,20.06
2023-05-19T12:20:40.214Z,20.08
2023-05-19T12:23:10.644Z,20.13
2023-05-19T12:25:39.583Z,20.23
2023-05-19T12:28:08.704Z,19.91
2023-05-19T12:30:41.011Z,20.07
2023-05-19T12:33:10.513Z,19.98
2023-05-19T12:35:39.423Z,19.94
2023-05-19T12:38:08.771Z,19.90
2023-05-19T12:40:40.192Z,19.93
2023-05-19T12:43:10.799Z,19.99
2023-05-19T12:45:43.284Z,19.84
2023-05-19T12:48:18.912Z,19.83
2023-05-19T12:50:48.010Z,19.81
2023-05-19T12:53:17.223Z,19.76
2023-05-19T12:55:46.713Z,19.70
2023-05-19T12:58:17.098Z,19.63
2023-05-19T13:00:51.326Z,19.72
2023-05-19T13:03:21.735Z,19.69
2023-05-19T13:05:52.496Z,19.60
2023-05-19T13:08:24.988Z,19.57
2023-05-19T13:10:53.775Z,19.48
2023-05-19T13:13:22.889Z,19.54
2023-05-19T13:15:52.017Z,19.51
2023-05-19T13:18:21.263Z,19.35
2023-05-19T13:20:52.140Z,19.46
2023-05-19T13:23:21.476Z,19.34
2023-05-19T13:25:52.439Z,19.01
2023-05-19T13:28:21.486Z,19.31
2023-05-19T13:30:52.342Z,19.25
2023-05-19T13:33:21.163Z,19.30
2023-05-19T13:35:50.149Z,19.21
2023-05-19T13:38:19.640Z,18.85
2023-05-19T13:40:50.801Z,19.06
2023-05-19T13:43:19.778Z,19.09
2023-05-19T13:45:48.698Z,19.01
2023-05-19T13:48:18.113Z,18.85
2023-05-19T13:50:48.021Z,18.92
2023-05-19T13:53:17.008Z,18.85
2023-05-19T13:55:49.298Z,18.67
2023-05-19T13:58:20.492Z,18.65
2023-05-19T14:00:51.896Z,18.69
2023-05-19T14:03:20.967Z,18.32
2023-05-19T14:05:50.341Z,18.24
2023-05-19T14:08:19.943Z,18.57
2023-05-19T14:10:48.940Z,18.34
2023-05-19T14:13:32.025Z,18.36
2023-05-19T14:16:03.310Z,18.32
2023-05-19T14:18:33.337Z,18.31
2023-05-19T14:21:02.394Z,18.18
2023-05-19T14:23:32.021Z,18.14
2023-05-19T14:26:01.128Z,17.93
2023-05-19T14:28:35.256Z,17.93
2023-05-19T14:31:04.466Z,17.88
2023-05-19T14:33:35.631Z,17.70
2023-05-19T14:36:06.017Z,17.65
2023-05-19T14:38:35.343Z,17.50
2023-05-19T14:41:04.557Z,17.47
2023-05-19T14:43:34.416Z,17.19
2023-05-19T14:46:03.279Z,17.10
2023-05-19T14:48:32.925Z,17.07
2023-05-19T14:51:02.141Z,16.84
2023-05-19T14:53:31.117Z,16.87
2023-05-19T14:56:00.195Z,16.73
2023-05-19T14:58:29.499Z,16.61
2023-05-19T15:00:59.991Z,16.36
2023-05-19T15:03:29.153Z,16.29
2023-05-19T15:05:58.080Z,16.14
2023-05-19T15:08:27.498Z,15.97
2023-05-19T15:10:56.481Z,15.76
2023-05-19T15:13:26.961Z,15.63
2023-05-19T15:16:08.242Z,15.51
2023-05-19T15:18:45.398Z,15.29
2023-05-19T15:21:14.299Z,15.12
2023-05-19T15:23:43.756Z,14.65
2023-05-19T15:26:13.662Z,14.87
2023-05-19T15:28:42.930Z,14.64
2023-05-19T15:31:11.987Z,14.48
2023-05-19T15:33:41.160Z,14.34
2023-05-19T15:36:10.278Z,13.89
2023-05-19T15:38:39.184Z,13.96
2023-05-19T15:41:09.396Z,13.86
2023-05-19T15:43:38.561Z,13.74
2023-05-19T15:46:07.682Z,13.70
2023-05-19T15:48:36.492Z,13.37
2023-05-19T15:51:05.642Z,13.39
2023-05-19T15:53:34.918Z,13.18
2023-05-19T15:56:04.838Z,13.08
2023-05-19T15:58:33.785Z,12.84
2023-05-19T16:01:02.999Z,12.94
2023-05-19T16:03:31.929Z,12.78
2023-05-19T16:06:03.784Z,12.66
2023-05-19T16:08:32.862Z,12.21
2023-05-19T16:11:01.932Z,12.49
2023-05-19T16:13:31.666Z,12.40
2023-05-19T16:16:01.034Z,12.24
2023-05-19T16:18:33.029Z,12.19
2023-05-19T16:21:01.760Z,12.01
2023-05-19T16:23:30.954Z,12.19
2023-05-19T16:26:02.019Z,12.19
2023-05-19T16:28:31.163Z,11.99
2023-05-19T16:31:01.301Z,12.02
2023-05-19T16:33:30.964Z,11.88
2023-05-19T16:36:03.005Z,11.70
2023-05-19T16:38:32.064Z,11.70
2023-05-19T16:41:00.844Z,11.41
2023-05-19T16:43:29.951Z,11.52
2023-05-19T16:45:58.739Z,11.56
2023-05-19T16:48:27.544Z,11.47
2023-05-19T16:50:56.384Z,11.28
2023-05-19T16:53:25.567Z,11.26
2023-05-19T16:55:55.281Z,11.18
2023-05-19T16:58:24.621Z,11.26
2023-05-19T17:00:54.008Z,11.07
2023-05-19T17:03:26.291Z,11.03
2023-05-19T17:05:55.454Z,11.03
2023-05-19T17:08:24.362Z,11.01
2023-05-19T17:10:53.229Z,10.46
2023-05-19T17:13:22.237Z,10.53
2023-05-19T17:15:53.705Z,10.69
2023-05-19T17:18:23.556Z,10.60
2023-05-19T17:20:52.261Z,10.49
2023-05-19T17:23:22.388Z,10.50
2023-05-19T17:25:56.397Z,10.38
2023-05-19T17:28:25.360Z,10.20
2023-05-19T17:30:54.513Z,10.28
2023-05-19T17:33:23.671Z,10.27
2023-05-19T17:35:55.574Z,10.17
2023-05-19T17:38:24.807Z,10.25
2023-05-19T17:40:54.779Z,10.16
2023-05-19T17:43:23.809Z,10.12
2023-05-19T17:45:55.362Z,10.09
2023-05-19T17:48:24.770Z,10.00
2023-05-19T17:50:53.861Z,9.88
2023-05-19T17:53:22.952Z,9.80
2023-05-19T17:55:59.184Z,9.80
2023-05-19T17:58:29.116Z,9.80
2023-05-19T18:00:58.228Z,9.83
2023-05-19T18:03:27.489Z,9.52
2023-05-19T18:05:56.852Z,9.72
2023-05-19T18:08:26.572Z,9.75
2023-05-19T18:10:56.811Z,9.77
2023-05-19T18:13:26.954Z,9.75
2023-05-19T18:15:56.000Z,9.47
2023-05-19T18:18:25.132Z,9.73
2023-05-19T18:20:55.651Z,9.74
2023-05-19T18:23:24.622Z,9.69
2023-05-19T18:25:53.897Z,9.66
2023-05-19T18:28:23.881Z,9.61
2023-05-19T18:31:06.013Z,9.58
2023-05-19T18:33:34.945Z,9.54
2023-05-19T18:36:03.932Z,9.44
2023-05-19T18:38:33.552Z,9.40
2023-05-19T18:41:02.539Z,9.61
2023-05-19T18:43:33.056Z,9.47
2023-05-19T18:46:02.029Z,9.49
2023-05-19T18:48:31.056Z,9.06
2023-05-19T18:51:00.730Z,9.41
2023-05-19T18:53:29.589Z,9.33
2023-05-19T18:55:58.374Z,9.25
2023-05-19T18:58:27.692Z,9.20
2023-05-19T19:00:57.207Z,9.18
2023-05-19T19:03:26.321Z,9.29
2023-05-19T19:05:59.756Z,9.14
2023-05-19T19:08:32.264Z,9.17
2023-05-19T19:11:02.122Z,8.67
2023-05-19T19:13:31.610Z,8.94
2023-05-19T19:16:05.931Z,8.67
2023-05-19T19:18:36.700Z,8.94
2023-05-19T19:21:06.319Z,8.65
2023-05-19T19:23:36.371Z,8.70
2023-05-19T19:26:05.456Z,8.70
2023-05-19T19:28:34.371Z,8.75
2023-05-19T19:31:03.299Z,8.59
2023-05-19T19:33:32.213Z,8.67
2023-05-19T19:36:02.031Z,8.61
2023-05-19T19:38:31.014Z,8.32
2023-05-19T19:40:59.833Z,8.60
2023-05-19T19:43:28.681Z,8.75
2023-05-19T19:46:05.201Z,8.74
2023-05-19T19:48:34.154Z,8.64
2023-05-19T19:51:03.018Z,8.59
2023-05-19T19:53:34.288Z,8.50
2023-05-19T19:56:05.226Z,8.47
2023-05-19T19:58:34.098Z,8.22
2023-05-19T20:01:06.942Z,7.96
2023-05-19T20:03:36.850Z,8.36
2023-05-19T20:06:08.599Z,7.85
2023-05-19T20:08:37.638Z,8.25
2023-05-19T20:11:07.424Z,7.85
2023-05-19T20:13:36.478Z,8.08
2023-05-19T20:16:05.334Z,8.11
2023-05-19T20:18:34.594Z,7.75
2023-05-19T20:21:03.225Z,8.11
2023-05-19T20:23:32.612Z,8.00
2023-05-19T20:28:38.937Z,7.88
2023-05-19T20:31:10.422Z,7.86
2023-05-19T20:33:39.601Z,7.80
2023-05-19T20:36:08.850Z,7.72
2023-05-19T20:38:37.721Z,7.37
2023-05-19T20:41:06.432Z,7.59
2023-05-19T20:43:35.632Z,7.70
2023-05-19T20:46:05.216Z,7.65
2023-05-19T20:48:36.280Z,7.66
2023-05-19T20:51:05.359Z,7.49
2023-05-19T20:53:34.378Z,7.41
2023-05-19T20:56:03.320Z,7.50
2023-05-19T20:58:32.337Z,7.01
2023-05-19T21:01:01.270Z,7.03
2023-05-19T21:03:31.431Z,7.34
2023-05-19T21:06:01.459Z,7.41
2023-05-19T21:08:30.551Z,7.40
2023-05-19T21:11:00.171Z,7.35
2023-05-19T21:13:29.232Z,7.18
2023-05-19T21:15:58.052Z,7.13
2023-05-19T21:18:26.937Z,7.07
2023-05-19T21:20:55.927Z,7.04
2023-05-19T21:23:24.915Z,7.04
2023-05-19T21:25:53.944Z,7.14
2023-05-19T21:28:22.803Z,7.07
2023-05-19T21:30:51.755Z,7.03
2023-05-19T21:33:20.600Z,7.04
2023-05-19T21:35:49.571Z,6.93
2023-05-19T21:38:23.798Z,6.58
2023-05-19T21:40:53.974Z,6.96
2023-05-19T21:43:23.100Z,6.74
2023-05-19T21:45:51.977Z,6.90
2023-05-19T21:48:20.924Z,6.85
2023-05-19T21:50:56.721Z,6.85
2023-05-19T21:53:26.428Z,6.92
2023-05-19T21:55:55.467Z,6.87
2023-05-19T21:58:24.970Z,6.98
2023-05-19T22:00:57.670Z,6.87
2023-05-19T22:03:27.074Z,6.80
2023-05-19T22:05:56.653Z,6.91
2023-05-19T22:08:26.788Z,6.43
2023-05-19T22:10:55.951Z,6.79
2023-05-19T22:13:24.551Z,6.48
2023-05-19T22:15:53.741Z,6.71
2023-05-19T22:18:22.893Z,6.77
2023-05-19T22:20:51.714Z,6.77
2023-05-19T22:23:20.623Z,6.75
2023-05-19T22:25:49.564Z,6.57
2023-05-19T22:28:18.401Z,6.61
2023-05-19T22:30:47.429Z,6.52
2023-05-19T22:33:16.348Z,6.44
2023-05-19T22:35:45.467Z,6.53
2023-05-19T22:38:14.376Z,6.45
2023-05-19T22:40:43.328Z,6.40
2023-05-19T22:43:12.293Z,6.28
2023-05-19T22:45:41.325Z,6.50
2023-05-19T22:48:10.132Z,6.28
2023-05-19T22:50:39.135Z,6.34
2023-05-19T22:53:08.032Z,6.33
2023-05-19T22:55:37.053Z,6.25
2023-05-19T22:58:07.127Z,6.33
2023-05-19T23:00:36.029Z,6.37
2023-05-19T23:03:05.149Z,6.38
2023-05-19T23:05:34.039Z,6.38
2023-05-19T23:08:03.166Z,6.27
2023-05-19T23:10:32.192Z,6.37
2023-05-19T23:13:01.037Z,6.32
2023-05-19T23:15:29.866Z,6.73
2023-05-19T23:17:58.882Z,6.51
2023-05-19T23:20:27.850Z,7.19
2023-05-19T23:22:56.853Z,7.76
2023-05-19T23:25:25.759Z,8.22
2023-05-19T23:27:54.531Z,8.61
2023-05-19T23:30:23.512Z,9.00
2023-05-19T23:32:53.788Z,9.32
2023-05-19T23:35:23.295Z,9.79
2023-05-19T23:37:52.071Z,10.31
2023-05-19T23:40:20.951Z,10.72
2023-05-19T23:42:49.859Z,11.11
2023-05-19T23:45:18.861Z,11.41
2023-05-19T23:47:47.692Z,11.59
2023-05-19T23:50:16.714Z,12.11
2023-05-19T23:52:45.796Z,12.41
2023-05-19T23:55:15.817Z,11.92
2023-05-19T23:57:44.779Z,11.22
